Portada
METAR-TAF:

METAR-TAF

Aeroports :

Watauga County Hospital Heliport

Boone, Carolina del Nord, Estats Units d'Amèrica

latitud: 36-12N, longitud: 081-39W, altitud: 959 m

Observació

L'informe es va fer fa 28 minuts, a les 00:35 UTC
Vent calma
Temperatura 22°C
Humitat 73%
Pressió 1021 hPa
Visibilitat: 16.1 km

METAR: KTNB 110035Z AUTO 00000KT 10SM 22/17 A3014 RMK AO2 T02200171

Hora: 21:03 (01:03 UTC)


TAF: manca

Observacions i pronòstics meteorològics de més de 4000 aeroports (METAR i TAF).

Les estacions disponibles són els punts grocs i vermells al mapa.

Posi el ratolí al punt desitjat per veure el nom de l'estació.

Feu clic per veure les observacions i els pronòstics meteorològics.

Per canviar el mapa: feu clic els botons verds amb una creu de color negre per apropar; al botó verd amb un guió per allunyar la imatge; o en les fletxes verdes per a mapes adjacents.


METAR-TAF: